sensor_id;sensor_type;location;lat;lon;timestamp;temperature;humidity
4739;DHT22;2383;48.632;10.156;2023-09-12T00:03:23;15.90;99.90
4739;DHT22;2383;48.632;10.156;2023-09-12T00:07:25;15.90;99.90
4739;DHT22;2383;48.632;10.156;2023-09-12T00:11:27;16.40;99.90
4739;DHT22;2383;48.632;10.156;2023-09-12T00:15:29;16.70;99.90
4739;DHT22;2383;48.632;10.156;2023-09-12T00:19:31;16.80;99.90
4739;DHT22;2383;48.632;10.156;2023-09-12T00:23:33;17.00;99.90
4739;DHT22;2383;48.632;10.156;2023-09-12T00:27:35;17.10;99.90
4739;DHT22;2383;48.632;10.156;2023-09-12T00:31:37;16.80;99.90
4739;DHT22;2383;48.632;10.156;2023-09-12T00:35:40;16.40;99.90
4739;DHT22;2383;48.632;10.156;2023-09-12T00:39:41;16.60;99.90
4739;DHT22;2383;48.632;10.156;2023-09-12T00:43:44;16.10;99.90
4739;DHT22;2383;48.632;10.156;2023-09-12T00:47:46;15.50;99.90
4739;DHT22;2383;48.632;10.156;2023-09-12T00:56:42;15.90;99.90
4739;DHT22;2383;48.632;10.156;2023-09-12T01:00:44;16.20;99.90
4739;DHT22;2383;48.632;10.156;2023-09-12T01:04:47;16.20;99.90
4739;DHT22;2383;48.632;10.156;2023-09-12T01:08:49;16.30;99.90
4739;DHT22;2383;48.632;10.156;2023-09-12T01:12:52;16.60;99.90
4739;DHT22;2383;48.632;10.156;2023-09-12T01:16:55;16.00;99.90
4739;DHT22;2383;48.632;10.156;2023-09-12T01:21:31;15.10;99.90
4739;DHT22;2383;48.632;10.156;2023-09-12T01:29:56;16.10;99.90
4739;DHT22;2383;48.632;10.156;2023-09-12T01:34:11;16.20;99.90
4739;DHT22;2383;48.632;10.156;2023-09-12T01:38:14;16.00;99.90
4739;DHT22;2383;48.632;10.156;2023-09-12T01:42:18;16.10;99.90
4739;DHT22;2383;48.632;10.156;2023-09-12T01:46:22;15.90;99.90
4739;DHT22;2383;48.632;10.156;2023-09-12T01:50:27;15.60;99.90
4739;DHT22;2383;48.632;10.156;2023-09-12T01:54:30;15.50;99.90
4739;DHT22;2383;48.632;10.156;2023-09-12T01:58:58;14.60;99.90
4739;DHT22;2383;48.632;10.156;2023-09-12T02:03:01;14.60;99.90
4739;DHT22;2383;48.632;10.156;2023-09-12T02:07:04;14.50;99.90
4739;DHT22;2383;48.632;10.156;2023-09-12T02:11:06;14.00;99.90
4739;DHT22;2383;48.632;10.156;2023-09-12T02:15:08;14.50;99.90
4739;DHT22;2383;48.632;10.156;2023-09-12T02:19:11;14.10;99.90
4739;DHT22;2383;48.632;10.156;2023-09-12T02:23:13;14.50;99.90
4739;DHT22;2383;48.632;10.156;2023-09-12T02:27:16;14.50;99.90
4739;DHT22;2383;48.632;10.156;2023-09-12T02:31:18;15.00;99.90
4739;DHT22;2383;48.632;10.156;2023-09-12T02:35:20;15.20;99.90
4739;DHT22;2383;48.632;10.156;2023-09-12T02:39:22;15.40;99.90
4739;DHT22;2383;48.632;10.156;2023-09-12T02:43:24;15.60;99.90
4739;DHT22;2383;48.632;10.156;2023-09-12T02:47:26;15.80;99.90
4739;DHT22;2383;48.632;10.156;2023-09-12T02:51:28;16.00;99.90
4739;DHT22;2383;48.632;10.156;2023-09-12T02:55:30;16.10;99.90
4739;DHT22;2383;48.632;10.156;2023-09-12T02:59:33;16.20;99.90
4739;DHT22;2383;48.632;10.156;2023-09-12T03:03:34;16.50;99.90
4739;DHT22;2383;48.632;10.156;2023-09-12T03:07:37;16.20;99.90
4739;DHT22;2383;48.632;10.156;2023-09-12T03:11:39;16.20;99.90
4739;DHT22;2383;48.632;10.156;2023-09-12T03:15:41;16.20;99.90
4739;DHT22;2383;48.632;10.156;2023-09-12T03:19:43;15.80;99.90
4739;DHT22;2383;48.632;10.156;2023-09-12T03:23:45;15.80;99.90
4739;DHT22;2383;48.632;10.156;2023-09-12T03:27:47;16.10;99.90
4739;DHT22;2383;48.632;10.156;2023-09-12T03:31:49;16.00;99.90
4739;DHT22;2383;48.632;10.156;2023-09-12T03:35:52;16.00;99.90
4739;DHT22;2383;48.632;10.156;2023-09-12T03:39:54;16.10;99.90
4739;DHT22;2383;48.632;10.156;2023-09-12T03:43:56;15.50;99.90
4739;DHT22;2383;48.632;10.156;2023-09-12T03:47:58;15.40;99.90
4739;DHT22;2383;48.632;10.156;2023-09-12T03:52:01;15.00;99.90
4739;DHT22;2383;48.632;10.156;2023-09-12T03:56:04;14.90;99.90
4739;DHT22;2383;48.632;10.156;2023-09-12T04:00:06;15.10;99.90
4739;DHT22;2383;48.632;10.156;2023-09-12T04:04:18;15.50;99.90
4739;DHT22;2383;48.632;10.156;2023-09-12T04:08:20;15.50;99.90
4739;DHT22;2383;48.632;10.156;2023-09-12T04:12:23;15.20;99.90
4739;DHT22;2383;48.632;10.156;2023-09-12T04:16:26;14.90;99.90
4739;DHT22;2383;48.632;10.156;2023-09-12T04:24:52;14.90;99.90
4739;DHT22;2383;48.632;10.156;2023-09-12T04:28:55;15.20;99.90
4739;DHT22;2383;48.632;10.156;2023-09-12T04:32:57;15.30;99.90
4739;DHT22;2383;48.632;10.156;2023-09-12T04:36:59;14.90;99.90
4739;DHT22;2383;48.632;10.156;2023-09-12T04:41:03;14.80;99.90
4739;DHT22;2383;48.632;10.156;2023-09-12T04:45:08;14.80;99.90
4739;DHT22;2383;48.632;10.156;2023-09-12T04:49:10;14.80;99.90
4739;DHT22;2383;48.632;10.156;2023-09-12T04:53:12;14.80;99.90
4739;DHT22;2383;48.632;10.156;2023-09-12T04:57:14;15.00;99.90
4739;DHT22;2383;48.632;10.156;2023-09-12T05:01:17;15.10;99.90
4739;DHT22;2383;48.632;10.156;2023-09-12T05:10:55;14.80;99.90
4739;DHT22;2383;48.632;10.156;2023-09-12T05:15:23;14.50;99.90
4739;DHT22;2383;48.632;10.156;2023-09-12T05:19:30;14.80;99.90
4739;DHT22;2383;48.632;10.156;2023-09-12T05:23:35;14.70;99.90
4739;DHT22;2383;48.632;10.156;2023-09-12T05:27:37;14.40;99.90
4739;DHT22;2383;48.632;10.156;2023-09-12T05:31:39;14.10;99.90
4739;DHT22;2383;48.632;10.156;2023-09-12T05:35:42;14.30;99.90
4739;DHT22;2383;48.632;10.156;2023-09-12T05:39:44;14.10;99.90
4739;DHT22;2383;48.632;10.156;2023-09-12T05:43:46;13.90;99.90
4739;DHT22;2383;48.632;10.156;2023-09-12T05:47:49;13.90;99.90
4739;DHT22;2383;48.632;10.156;2023-09-12T05:51:52;13.80;99.90
4739;DHT22;2383;48.632;10.156;2023-09-12T05:55:54;13.90;99.90
4739;DHT22;2383;48.632;10.156;2023-09-12T05:59:58;14.30;99.90
4739;DHT22;2383;48.632;10.156;2023-09-12T06:04:01;14.40;99.90
4739;DHT22;2383;48.632;10.156;2023-09-12T06:08:04;14.40;99.90
4739;DHT22;2383;48.632;10.156;2023-09-12T06:12:06;14.90;99.90
4739;DHT22;2383;48.632;10.156;2023-09-12T06:16:08;15.10;99.90
4739;DHT22;2383;48.632;10.156;2023-09-12T06:20:11;14.80;99.90
4739;DHT22;2383;48.632;10.156;2023-09-12T06:24:18;15.30;99.90
4739;DHT22;2383;48.632;10.156;2023-09-12T06:28:28;15.70;99.90
4739;DHT22;2383;48.632;10.156;2023-09-12T06:32:30;15.80;99.90
4739;DHT22;2383;48.632;10.156;2023-09-12T06:36:33;15.90;99.90
4739;DHT22;2383;48.632;10.156;2023-09-12T06:40:35;16.20;99.90
4739;DHT22;2383;48.632;10.156;2023-09-12T06:44:37;16.40;99.90
4739;DHT22;2383;48.632;10.156;2023-09-12T06:48:39;16.50;99.90
4739;DHT22;2383;48.632;10.156;2023-09-12T06:52:42;16.60;99.90
4739;DHT22;2383;48.632;10.156;2023-09-12T06:56:44;16.80;99.90
4739;DHT22;2383;48.632;10.156;2023-09-12T07:00:46;17.00;99.90
4739;DHT22;2383;48.632;10.156;2023-09-12T07:04:48;17.10;99.90
4739;DHT22;2383;48.632;10.156;2023-09-12T07:08:50;17.00;99.90
4739;DHT22;2383;48.632;10.156;2023-09-12T07:12:53;17.20;99.90
4739;DHT22;2383;48.632;10.156;2023-09-12T07:16:56;17.50;99.90
4739;DHT22;2383;48.632;10.156;2023-09-12T07:21:03;17.60;99.90
4739;DHT22;2383;48.632;10.156;2023-09-12T07:25:06;17.80;99.90
4739;DHT22;2383;48.632;10.156;2023-09-12T07:29:08;18.00;99.90
4739;DHT22;2383;48.632;10.156;2023-09-12T07:33:10;18.00;99.90
4739;DHT22;2383;48.632;10.156;2023-09-12T07:37:12;17.70;99.90
4739;DHT22;2383;48.632;10.156;2023-09-12T07:41:15;18.00;99.90
4739;DHT22;2383;48.632;10.156;2023-09-12T07:45:16;18.40;99.90
4739;DHT22;2383;48.632;10.156;2023-09-12T07:49:19;18.80;99.90
4739;DHT22;2383;48.632;10.156;2023-09-12T07:53:21;18.90;99.90
4739;DHT22;2383;48.632;10.156;2023-09-12T07:57:24;19.10;99.90
4739;DHT22;2383;48.632;10.156;2023-09-12T08:01:26;19.20;99.90
4739;DHT22;2383;48.632;10.156;2023-09-12T08:05:29;19.20;99.90
4739;DHT22;2383;48.632;10.156;2023-09-12T08:09:55;19.20;99.90
4739;DHT22;2383;48.632;10.156;2023-09-12T08:13:58;19.50;99.90
4739;DHT22;2383;48.632;10.156;2023-09-12T08:18:00;19.50;99.90
4739;DHT22;2383;48.632;10.156;2023-09-12T08:22:03;19.30;99.90
4739;DHT22;2383;48.632;10.156;2023-09-12T08:26:05;19.50;99.90
4739;DHT22;2383;48.632;10.156;2023-09-12T08:30:08;19.70;99.90
4739;DHT22;2383;48.632;10.156;2023-09-12T08:34:10;20.00;99.90
4739;DHT22;2383;48.632;10.156;2023-09-12T08:38:12;20.10;99.90
4739;DHT22;2383;48.632;10.156;2023-09-12T08:42:15;20.00;99.90
4739;DHT22;2383;48.632;10.156;2023-09-12T08:46:18;20.20;99.90
4739;DHT22;2383;48.632;10.156;2023-09-12T08:50:21;20.40;99.90
4739;DHT22;2383;48.632;10.156;2023-09-12T08:54:25;20.50;99.90
4739;DHT22;2383;48.632;10.156;2023-09-12T08:58:27;20.60;99.90
4739;DHT22;2383;48.632;10.156;2023-09-12T09:02:30;20.50;99.90
4739;DHT22;2383;48.632;10.156;2023-09-12T09:06:32;20.60;99.90
4739;DHT22;2383;48.632;10.156;2023-09-12T09:10:39;20.70;99.90
4739;DHT22;2383;48.632;10.156;2023-09-12T09:14:52;20.80;99.90
4739;DHT22;2383;48.632;10.156;2023-09-12T09:19:02;20.90;99.90
4739;DHT22;2383;48.632;10.156;2023-09-12T09:23:09;21.10;99.90
4739;DHT22;2383;48.632;10.156;2023-09-12T09:27:32;21.20;99.90
4739;DHT22;2383;48.632;10.156;2023-09-12T09:31:35;21.20;99.90
4739;DHT22;2383;48.632;10.156;2023-09-12T09:35:41;21.40;99.90
4739;DHT22;2383;48.632;10.156;2023-09-12T09:39:43;21.60;99.90
4739;DHT22;2383;48.632;10.156;2023-09-12T09:43:46;21.40;99.90
4739;DHT22;2383;48.632;10.156;2023-09-12T09:47:50;21.50;99.90
4739;DHT22;2383;48.632;10.156;2023-09-12T09:51:55;21.80;99.90
4739;DHT22;2383;48.632;10.156;2023-09-12T10:00:49;22.00;99.90
4739;DHT22;2383;48.632;10.156;2023-09-12T10:04:54;22.30;99.90
4739;DHT22;2383;48.632;10.156;2023-09-12T10:09:00;22.20;99.90
4739;DHT22;2383;48.632;10.156;2023-09-12T10:13:08;22.10;99.90
4739;DHT22;2383;48.632;10.156;2023-09-12T10:17:12;22.20;99.90
4739;DHT22;2383;48.632;10.156;2023-09-12T10:21:23;22.40;99.90
4739;DHT22;2383;48.632;10.156;2023-09-12T10:25:28;22.50;99.90
4739;DHT22;2383;48.632;10.156;2023-09-12T10:29:31;22.80;99.90
4739;DHT22;2383;48.632;10.156;2023-09-12T10:33:34;22.90;99.90
4739;DHT22;2383;48.632;10.156;2023-09-12T10:37:38;23.10;99.90
4739;DHT22;2383;48.632;10.156;2023-09-12T10:41:43;23.20;99.90
4739;DHT22;2383;48.632;10.156;2023-09-12T10:45:46;23.30;99.90
4739;DHT22;2383;48.632;10.156;2023-09-12T10:49:48;23.40;99.90
4739;DHT22;2383;48.632;10.156;2023-09-12T10:53:50;23.50;99.90
4739;DHT22;2383;48.632;10.156;2023-09-12T10:58:08;23.50;99.90
4739;DHT22;2383;48.632;10.156;2023-09-12T11:06:31;23.60;99.90
4739;DHT22;2383;48.632;10.156;2023-09-12T11:10:33;23.80;99.20
4739;DHT22;2383;48.632;10.156;2023-09-12T11:14:35;23.70;99.80
4739;DHT22;2383;48.632;10.156;2023-09-12T11:23:14;23.90;98.70
4739;DHT22;2383;48.632;10.156;2023-09-12T11:27:16;24.20;98.30
4739;DHT22;2383;48.632;10.156;2023-09-12T11:31:28;23.80;99.10
4739;DHT22;2383;48.632;10.156;2023-09-12T11:35:36;24.10;98.30
4739;DHT22;2383;48.632;10.156;2023-09-12T11:39:39;24.30;98.40
4739;DHT22;2383;48.632;10.156;2023-09-12T11:43:42;24.30;97.80
4739;DHT22;2383;48.632;10.156;2023-09-12T11:47:45;24.50;98.20
4739;DHT22;2383;48.632;10.156;2023-09-12T11:51:52;24.60;98.20
4739;DHT22;2383;48.632;10.156;2023-09-12T11:55:57;24.40;97.90
4739;DHT22;2383;48.632;10.156;2023-09-12T12:00:02;24.40;97.80
4739;DHT22;2383;48.632;10.156;2023-09-12T12:04:13;24.60;97.40
4739;DHT22;2383;48.632;10.156;2023-09-12T12:08:17;24.40;97.70
4739;DHT22;2383;48.632;10.156;2023-09-12T12:12:22;24.80;97.10
4739;DHT22;2383;48.632;10.156;2023-09-12T12:16:54;24.90;96.20
4739;DHT22;2383;48.632;10.156;2023-09-12T12:20:56;24.80;96.30
4739;DHT22;2383;48.632;10.156;2023-09-12T12:25:08;25.10;96.20
4739;DHT22;2383;48.632;10.156;2023-09-12T12:29:11;25.20;95.90
4739;DHT22;2383;48.632;10.156;2023-09-12T12:33:15;25.10;95.50
4739;DHT22;2383;48.632;10.156;2023-09-12T12:37:37;25.10;94.30
4739;DHT22;2383;48.632;10.156;2023-09-12T12:41:39;25.00;94.30
4739;DHT22;2383;48.632;10.156;2023-09-12T12:45:54;25.50;93.40
4739;DHT22;2383;48.632;10.156;2023-09-12T12:49:56;25.50;94.90
4739;DHT22;2383;48.632;10.156;2023-09-12T12:54:06;25.50;94.60
4739;DHT22;2383;48.632;10.156;2023-09-12T12:58:10;25.40;94.60
4739;DHT22;2383;48.632;10.156;2023-09-12T13:02:13;25.50;93.90
4739;DHT22;2383;48.632;10.156;2023-09-12T13:06:16;25.60;94.50
4739;DHT22;2383;48.632;10.156;2023-09-12T13:10:19;25.60;94.30
4739;DHT22;2383;48.632;10.156;2023-09-12T13:14:22;25.70;94.20
4739;DHT22;2383;48.632;10.156;2023-09-12T13:18:34;25.60;93.50
4739;DHT22;2383;48.632;10.156;2023-09-12T13:22:38;25.60;93.50
4739;DHT22;2383;48.632;10.156;2023-09-12T13:26:40;25.70;92.60
4739;DHT22;2383;48.632;10.156;2023-09-12T13:30:42;25.80;92.60
4739;DHT22;2383;48.632;10.156;2023-09-12T13:34:45;25.90;92.90
4739;DHT22;2383;48.632;10.156;2023-09-12T13:38:47;25.80;92.20
4739;DHT22;2383;48.632;10.156;2023-09-12T13:42:51;25.60;93.40
4739;DHT22;2383;48.632;10.156;2023-09-12T13:46:55;25.70;92.80
4739;DHT22;2383;48.632;10.156;2023-09-12T13:50:57;25.80;93.60
4739;DHT22;2383;48.632;10.156;2023-09-12T13:55:00;25.80;93.00
4739;DHT22;2383;48.632;10.156;2023-09-12T13:59:05;25.80;92.90
4739;DHT22;2383;48.632;10.156;2023-09-12T14:03:08;25.60;93.80
4739;DHT22;2383;48.632;10.156;2023-09-12T14:07:11;25.70;92.70
4739;DHT22;2383;48.632;10.156;2023-09-12T14:11:14;25.70;92.50
4739;DHT22;2383;48.632;10.156;2023-09-12T14:15:33;25.60;92.80
4739;DHT22;2383;48.632;10.156;2023-09-12T14:19:36;25.70;92.50
4739;DHT22;2383;48.632;10.156;2023-09-12T14:23:38;25.90;93.10
4739;DHT22;2383;48.632;10.156;2023-09-12T14:27:41;26.10;92.30
4739;DHT22;2383;48.632;10.156;2023-09-12T14:31:49;26.00;92.80
4739;DHT22;2383;48.632;10.156;2023-09-12T14:35:54;26.10;92.60
4739;DHT22;2383;48.632;10.156;2023-09-12T14:39:56;26.00;92.30
4739;DHT22;2383;48.632;10.156;2023-09-12T14:43:59;26.00;92.40
4739;DHT22;2383;48.632;10.156;2023-09-12T14:48:01;26.00;92.30
4739;DHT22;2383;48.632;10.156;2023-09-12T14:52:04;26.20;92.70
4739;DHT22;2383;48.632;10.156;2023-09-12T14:56:18;26.30;92.90
4739;DHT22;2383;48.632;10.156;2023-09-12T15:00:21;26.40;93.00
4739;DHT22;2383;48.632;10.156;2023-09-12T15:04:29;26.20;91.70
4739;DHT22;2383;48.632;10.156;2023-09-12T15:08:31;26.10;92.20
4739;DHT22;2383;48.632;10.156;2023-09-12T15:12:33;25.90;92.80
4739;DHT22;2383;48.632;10.156;2023-09-12T15:16:35;25.80;92.90
4739;DHT22;2383;48.632;10.156;2023-09-12T15:20:37;25.70;93.40
4739;DHT22;2383;48.632;10.156;2023-09-12T15:24:43;25.60;93.60
4739;DHT22;2383;48.632;10.156;2023-09-12T15:28:45;25.70;93.90
4739;DHT22;2383;48.632;10.156;2023-09-12T15:32:47;25.60;94.80
4739;DHT22;2383;48.632;10.156;2023-09-12T15:36:49;25.50;95.10
4739;DHT22;2383;48.632;10.156;2023-09-12T15:40:52;25.40;95.00
4739;DHT22;2383;48.632;10.156;2023-09-12T15:44:56;25.30;95.30
4739;DHT22;2383;48.632;10.156;2023-09-12T15:49:04;25.20;95.30
4739;DHT22;2383;48.632;10.156;2023-09-12T15:53:06;25.10;95.90
4739;DHT22;2383;48.632;10.156;2023-09-12T15:57:08;25.10;96.20
4739;DHT22;2383;48.632;10.156;2023-09-12T16:01:12;25.00;96.70
4739;DHT22;2383;48.632;10.156;2023-09-12T16:05:14;24.90;96.40
4739;DHT22;2383;48.632;10.156;2023-09-12T16:09:16;24.80;96.70
4739;DHT22;2383;48.632;10.156;2023-09-12T16:13:19;24.50;97.30
4739;DHT22;2383;48.632;10.156;2023-09-12T16:17:21;24.50;97.30
4739;DHT22;2383;48.632;10.156;2023-09-12T16:21:23;24.50;96.60
4739;DHT22;2383;48.632;10.156;2023-09-12T16:25:26;24.40;95.90
4739;DHT22;2383;48.632;10.156;2023-09-12T16:29:28;24.30;97.20
4739;DHT22;2383;48.632;10.156;2023-09-12T16:33:30;24.30;97.20
4739;DHT22;2383;48.632;10.156;2023-09-12T16:37:35;24.30;96.90
4739;DHT22;2383;48.632;10.156;2023-09-12T16:41:37;24.20;97.20
4739;DHT22;2383;48.632;10.156;2023-09-12T16:45:39;24.20;97.40
4739;DHT22;2383;48.632;10.156;2023-09-12T16:49:41;24.20;98.10
4739;DHT22;2383;48.632;10.156;2023-09-12T16:53:43;24.20;98.50
4739;DHT22;2383;48.632;10.156;2023-09-12T16:57:46;24.10;98.50
4739;DHT22;2383;48.632;10.156;2023-09-12T17:01:48;23.90;98.80
4739;DHT22;2383;48.632;10.156;2023-09-12T17:05:53;23.80;98.90
4739;DHT22;2383;48.632;10.156;2023-09-12T17:09:57;23.70;99.10
4739;DHT22;2383;48.632;10.156;2023-09-12T17:14:00;23.60;98.70
4739;DHT22;2383;48.632;10.156;2023-09-12T17:18:03;23.40;99.10
4739;DHT22;2383;48.632;10.156;2023-09-12T17:22:05;23.30;99.30
4739;DHT22;2383;48.632;10.156;2023-09-12T17:26:08;23.20;99.00
4739;DHT22;2383;48.632;10.156;2023-09-12T17:30:10;22.20;98.10
4739;DHT22;2383;48.632;10.156;2023-09-12T17:34:14;22.20;98.50
4739;DHT22;2383;48.632;10.156;2023-09-12T17:38:16;22.20;98.00
4739;DHT22;2383;48.632;10.156;2023-09-12T17:42:19;22.10;97.70
4739;DHT22;2383;48.632;10.156;2023-09-12T17:46:21;21.90;97.80
4739;DHT22;2383;48.632;10.156;2023-09-12T17:50:23;22.30;97.80
4739;DHT22;2383;48.632;10.156;2023-09-12T17:54:27;22.60;97.60
4739;DHT22;2383;48.632;10.156;2023-09-12T17:58:29;22.60;97.60
4739;DHT22;2383;48.632;10.156;2023-09-12T18:02:31;22.60;97.60
4739;DHT22;2383;48.632;10.156;2023-09-12T18:06:34;22.80;97.40
4739;DHT22;2383;48.632;10.156;2023-09-12T18:10:38;22.80;97.60
4739;DHT22;2383;48.632;10.156;2023-09-12T18:14:40;22.70;97.90
4739;DHT22;2383;48.632;10.156;2023-09-12T18:18:43;22.50;97.60
4739;DHT22;2383;48.632;10.156;2023-09-12T18:22:45;22.10;98.10
4739;DHT22;2383;48.632;10.156;2023-09-12T18:26:47;21.50;98.90
4739;DHT22;2383;48.632;10.156;2023-09-12T18:30:50;21.40;99.50
4739;DHT22;2383;48.632;10.156;2023-09-12T18:34:52;21.60;99.20
4739;DHT22;2383;48.632;10.156;2023-09-12T18:38:54;21.90;99.10
4739;DHT22;2383;48.632;10.156;2023-09-12T18:42:57;22.10;99.00
4739;DHT22;2383;48.632;10.156;2023-09-12T18:46:59;22.10;99.00
4739;DHT22;2383;48.632;10.156;2023-09-12T18:51:02;22.00;98.60
4739;DHT22;2383;48.632;10.156;2023-09-12T18:55:05;22.40;99.40
4739;DHT22;2383;48.632;10.156;2023-09-12T18:59:07;21.80;99.20
4739;DHT22;2383;48.632;10.156;2023-09-12T19:03:14;21.80;99.20
4739;DHT22;2383;48.632;10.156;2023-09-12T19:07:17;21.70;99.50
4739;DHT22;2383;48.632;10.156;2023-09-12T19:11:19;21.50;99.70
4739;DHT22;2383;48.632;10.156;2023-09-12T19:15:21;21.40;99.90
4739;DHT22;2383;48.632;10.156;2023-09-12T19:19:23;21.40;99.80
4739;DHT22;2383;48.632;10.156;2023-09-12T19:23:25;21.40;99.90
4739;DHT22;2383;48.632;10.156;2023-09-12T19:27:28;21.30;99.90
4739;DHT22;2383;48.632;10.156;2023-09-12T19:31:30;21.20;99.90
4739;DHT22;2383;48.632;10.156;2023-09-12T19:35:34;21.00;99.90
4739;DHT22;2383;48.632;10.156;2023-09-12T19:39:36;20.80;99.90
4739;DHT22;2383;48.632;10.156;2023-09-12T19:43:39;20.60;99.90
4739;DHT22;2383;48.632;10.156;2023-09-12T19:47:41;20.50;99.90
4739;DHT22;2383;48.632;10.156;2023-09-12T19:52:01;20.50;99.90
4739;DHT22;2383;48.632;10.156;2023-09-12T19:56:03;20.30;99.90
4739;DHT22;2383;48.632;10.156;2023-09-12T20:00:06;20.00;99.90
4739;DHT22;2383;48.632;10.156;2023-09-12T20:04:08;19.70;99.90
4739;DHT22;2383;48.632;10.156;2023-09-12T20:08:11;19.70;99.90
4739;DHT22;2383;48.632;10.156;2023-09-12T20:12:15;19.30;99.90
4739;DHT22;2383;48.632;10.156;2023-09-12T20:16:17;19.20;99.90
4739;DHT22;2383;48.632;10.156;2023-09-12T20:20:22;19.30;99.90
4739;DHT22;2383;48.632;10.156;2023-09-12T20:24:24;18.80;99.90
4739;DHT22;2383;48.632;10.156;2023-09-12T20:28:26;18.80;99.90
4739;DHT22;2383;48.632;10.156;2023-09-12T20:32:29;19.10;99.90
4739;DHT22;2383;48.632;10.156;2023-09-12T20:36:48;19.30;99.90
4739;DHT22;2383;48.632;10.156;2023-09-12T20:40:51;19.60;99.90
4739;DHT22;2383;48.632;10.156;2023-09-12T20:44:53;19.60;99.90
4739;DHT22;2383;48.632;10.156;2023-09-12T20:48:55;19.70;99.90
4739;DHT22;2383;48.632;10.156;2023-09-12T20:53:01;19.50;99.90
4739;DHT22;2383;48.632;10.156;2023-09-12T20:57:10;19.10;99.90
4739;DHT22;2383;48.632;10.156;2023-09-12T21:01:12;19.30;99.90
4739;DHT22;2383;48.632;10.156;2023-09-12T21:05:15;19.30;99.90
4739;DHT22;2383;48.632;10.156;2023-09-12T21:09:17;19.40;99.90
4739;DHT22;2383;48.632;10.156;2023-09-12T21:13:19;19.30;99.90
4739;DHT22;2383;48.632;10.156;2023-09-12T21:17:24;19.10;99.90
4739;DHT22;2383;48.632;10.156;2023-09-12T21:21:27;19.20;99.90
4739;DHT22;2383;48.632;10.156;2023-09-12T21:25:29;19.10;99.90
4739;DHT22;2383;48.632;10.156;2023-09-12T21:29:31;18.80;99.90
4739;DHT22;2383;48.632;10.156;2023-09-12T21:33:33;18.80;99.90
4739;DHT22;2383;48.632;10.156;2023-09-12T21:37:35;18.40;99.90
4739;DHT22;2383;48.632;10.156;2023-09-12T21:41:37;18.10;99.90
4739;DHT22;2383;48.632;10.156;2023-09-12T21:45:40;18.10;99.90
4739;DHT22;2383;48.632;10.156;2023-09-12T21:49:42;18.20;99.90
4739;DHT22;2383;48.632;10.156;2023-09-12T21:53:44;18.30;99.90
4739;DHT22;2383;48.632;10.156;2023-09-12T21:57:47;18.30;99.90
4739;DHT22;2383;48.632;10.156;2023-09-12T22:01:49;18.30;99.90
4739;DHT22;2383;48.632;10.156;2023-09-12T22:05:51;18.10;99.90
4739;DHT22;2383;48.632;10.156;2023-09-12T22:09:53;18.10;99.90
4739;DHT22;2383;48.632;10.156;2023-09-12T22:13:56;18.00;99.90
4739;DHT22;2383;48.632;10.156;2023-09-12T22:18:27;17.80;99.90
4739;DHT22;2383;48.632;10.156;2023-09-12T22:22:30;17.20;99.90
